createdAt,value
2018-06-28T00:00:31.339Z,70.82
2018-06-28T00:02:59.660Z,71.00
2018-06-28T00:05:27.994Z,70.61
2018-06-28T00:07:56.305Z,70.24
2018-06-28T00:10:25.943Z,70.35
2018-06-28T00:12:53.654Z,69.78
2018-06-28T00:15:22.565Z,69.32
2018-06-28T00:17:50.881Z,68.96
2018-06-28T00:20:19.210Z,68.66
2018-06-28T00:22:47.575Z,68.55
2018-06-28T00:25:15.908Z,68.71
2018-06-28T00:27:43.649Z,68.57
2018-06-28T00:30:12.561Z,68.47
2018-06-28T00:32:40.299Z,68.23
2018-06-28T00:35:09.213Z,68.44
2018-06-28T00:37:37.534Z,68.76
2018-06-28T00:40:05.856Z,68.94
2018-06-28T00:42:33.643Z,69.33
2018-06-28T00:45:02.545Z,69.62
2018-06-28T00:47:30.865Z,70.48
2018-06-28T00:49:59.185Z,71.19
2018-06-28T00:52:26.920Z,71.36
2018-06-28T00:54:55.822Z,71.04
2018-06-28T00:57:24.144Z,71.46
2018-06-28T00:59:51.879Z,71.34
2018-06-28T01:02:20.208Z,71.12
2018-06-28T01:04:48.691Z,71.01
2018-06-28T01:07:17.019Z,70.46
2018-06-28T01:09:45.920Z,70.23
2018-06-28T01:12:15.120Z,70.70
2018-06-28T01:14:42.865Z,71.55
2018-06-28T01:17:11.192Z,71.51
2018-06-28T01:19:40.094Z,71.37
2018-06-28T01:22:07.853Z,72.00
2018-06-28T01:24:36.738Z,71.80
2018-06-28T01:27:04.483Z,71.58
2018-06-28T01:29:33.388Z,72.36
2018-06-28T01:32:01.707Z,72.59
2018-06-28T01:34:30.033Z,72.46
2018-06-28T01:36:57.782Z,72.59
2018-06-28T01:39:26.685Z,73.09
2018-06-28T01:41:55.001Z,72.80
2018-06-28T01:44:23.364Z,72.62
2018-06-28T01:46:51.120Z,72.61
2018-06-28T01:49:19.420Z,72.09
2018-06-28T01:51:48.319Z,72.85
2018-06-28T01:54:16.061Z,72.41
2018-06-28T01:56:44.385Z,71.86
2018-06-28T01:59:13.280Z,71.96
2018-06-28T02:01:41.601Z,72.45
2018-06-28T02:04:09.916Z,72.90
2018-06-28T02:06:38.241Z,73.21
2018-06-28T02:09:06.576Z,72.84
2018-06-28T02:11:34.898Z,72.39
2018-06-28T02:14:02.631Z,72.12
2018-06-28T02:16:31.530Z,71.64
2018-06-28T02:18:59.852Z,71.28
2018-06-28T02:21:27.595Z,71.17
2018-06-28T02:23:56.496Z,71.64
2018-06-28T02:26:24.816Z,71.98
2018-06-28T02:28:52.555Z,72.08
2018-06-28T02:31:21.459Z,71.63
2018-06-28T02:33:49.780Z,71.38
2018-06-28T02:36:18.106Z,71.47
2018-06-28T02:38:45.845Z,71.61
2018-06-28T02:41:14.758Z,71.90
2018-06-28T02:43:42.505Z,71.89
2018-06-28T02:46:11.442Z,71.79
2018-06-28T02:48:39.182Z,71.54
2018-06-28T02:53:36.433Z,70.91
2018-06-28T02:56:04.755Z,71.15
2018-06-28T02:58:33.076Z,71.18
2018-06-28T03:01:01.397Z,71.29
2018-06-28T03:03:29.940Z,71.53
2018-06-28T03:05:58.034Z,71.55
2018-06-28T03:08:25.782Z,71.17
2018-06-28T03:10:54.682Z,71.51
2018-06-28T03:13:22.427Z,71.03
2018-06-28T03:15:51.322Z,70.91
2018-06-28T03:18:19.639Z,71.15
2018-06-28T03:20:47.458Z,71.25
2018-06-28T03:23:16.286Z,71.51
2018-06-28T03:25:44.612Z,71.82
2018-06-28T03:28:12.934Z,71.59
2018-06-28T03:30:41.262Z,71.07
2018-06-28T03:33:09.593Z,70.51
2018-06-28T03:35:37.347Z,70.07
2018-06-28T03:38:05.757Z,69.91
2018-06-28T03:40:34.000Z,69.84
2018-06-28T03:43:02.898Z,70.03
2018-06-28T03:45:30.650Z,69.98
2018-06-28T03:47:58.994Z,69.64
2018-06-28T03:50:27.904Z,69.28
2018-06-28T03:52:56.229Z,68.78
2018-06-28T03:55:23.979Z,68.42
2018-06-28T03:57:52.286Z,68.28
2018-06-28T04:00:20.619Z,68.15
2018-06-28T04:02:49.537Z,68.36
2018-06-28T04:05:17.286Z,68.37
2018-06-28T04:07:46.195Z,68.22
2018-06-28T04:10:14.542Z,67.87
2018-06-28T04:12:42.874Z,67.71
2018-06-28T04:15:11.209Z,67.58
2018-06-28T04:17:38.955Z,67.57
2018-06-28T04:20:07.502Z,67.60
2018-06-28T04:22:35.834Z,67.54
2018-06-28T04:25:04.162Z,67.42
2018-06-28T04:27:33.078Z,67.40
2018-06-28T04:30:01.384Z,67.30
2018-06-28T04:32:29.706Z,67.22
2018-06-28T04:34:57.441Z,67.20
2018-06-28T04:37:25.895Z,66.97
2018-06-28T04:39:54.663Z,66.78
2018-06-28T04:42:22.981Z,66.68
2018-06-28T04:44:50.724Z,66.58
2018-06-28T04:47:19.718Z,66.63
2018-06-28T04:49:48.127Z,66.69
2018-06-28T04:52:16.378Z,66.61
2018-06-28T04:54:44.116Z,66.61
2018-06-28T04:57:13.007Z,66.54
2018-06-28T04:59:41.638Z,66.46
2018-06-28T05:02:11.754Z,66.58
2018-06-28T05:04:38.609Z,66.50
2018-06-28T05:07:06.969Z,66.58
2018-06-28T05:09:35.262Z,66.48
2018-06-28T05:12:02.994Z,66.26
2018-06-28T05:14:31.891Z,66.16
2018-06-28T05:16:59.802Z,66.01
2018-06-28T05:19:28.400Z,65.75
2018-06-28T05:21:57.210Z,65.92
2018-06-28T05:24:24.961Z,65.44
2018-06-28T05:26:53.298Z,65.12
2018-06-28T05:29:22.199Z,64.69
2018-06-28T05:31:50.528Z,64.42
2018-06-28T05:34:18.853Z,64.00
2018-06-28T05:36:47.161Z,63.41
2018-06-28T05:39:14.912Z,63.40
2018-06-28T05:41:43.242Z,62.67
2018-06-28T05:44:12.132Z,62.20
2018-06-28T05:46:39.884Z,62.21
2018-06-28T05:49:08.206Z,62.17
2018-06-28T05:51:36.768Z,61.76
2018-06-28T05:54:05.483Z,61.39
2018-06-28T05:56:33.775Z,61.43
2018-06-28T05:59:02.095Z,61.29
2018-06-28T06:01:30.568Z,61.11
2018-06-28T06:03:58.153Z,60.99
2018-06-28T06:06:27.058Z,60.71
2018-06-28T06:08:55.377Z,61.28
2018-06-28T06:11:23.118Z,60.93
2018-06-28T06:13:52.027Z,60.83
2018-06-28T06:16:19.774Z,60.88
2018-06-28T06:18:48.097Z,60.83
2018-06-28T06:21:16.989Z,60.65
2018-06-28T06:23:44.736Z,60.50
2018-06-28T06:26:13.075Z,59.63
2018-06-28T06:28:44.885Z,59.44
2018-06-28T06:33:45.366Z,59.07
2018-06-28T06:36:13.715Z,59.14
2018-06-28T06:38:42.022Z,58.96
2018-06-28T06:41:10.325Z,58.61
2018-06-28T06:43:38.065Z,58.23
2018-06-28T06:46:09.414Z,58.23
2018-06-28T06:48:40.368Z,57.77
2018-06-28T06:51:08.026Z,57.95
2018-06-28T06:53:38.479Z,57.95
2018-06-28T06:56:06.642Z,57.46
2018-06-28T06:58:34.384Z,57.86
2018-06-28T07:01:03.280Z,57.74
2018-06-28T07:03:31.848Z,57.75
2018-06-28T07:05:59.674Z,57.48
2018-06-28T07:08:27.876Z,57.66
2018-06-28T07:10:56.319Z,57.90
2018-06-28T07:13:25.172Z,57.71
2018-06-28T07:15:52.936Z,57.46
2018-06-28T07:18:21.843Z,57.33
2018-06-28T07:20:49.573Z,57.10
2018-06-28T07:23:18.479Z,57.03
2018-06-28T07:25:46.793Z,56.63
2018-06-28T07:28:15.108Z,56.62
2018-06-28T07:30:42.882Z,56.67
2018-06-28T07:33:11.229Z,56.39
2018-06-28T07:35:40.082Z,56.17
2018-06-28T07:38:08.393Z,56.54
2018-06-28T07:40:36.139Z,56.06
2018-06-28T07:43:05.039Z,56.04
2018-06-28T07:45:32.816Z,56.24
2018-06-28T07:48:01.681Z,56.05
2018-06-28T07:50:29.427Z,55.48
2018-06-28T07:52:57.771Z,55.13
2018-06-28T07:55:26.776Z,55.60
2018-06-28T07:57:55.030Z,55.36
2018-06-28T08:00:23.361Z,54.68
2018-06-28T08:02:52.375Z,54.91
2018-06-28T08:05:20.699Z,54.67
2018-06-28T08:07:48.441Z,54.64
2018-06-28T08:10:17.330Z,54.60
2018-06-28T08:12:45.657Z,54.87
2018-06-28T08:15:13.409Z,54.43
2018-06-28T08:17:42.311Z,54.64
2018-06-28T08:20:10.646Z,54.05
2018-06-28T08:22:38.394Z,53.78
2018-06-28T08:25:06.722Z,53.72
2018-06-28T08:27:35.049Z,53.66
2018-06-28T08:30:03.354Z,53.60
2018-06-28T08:32:31.670Z,53.81
2018-06-28T08:35:00.002Z,53.28
2018-06-28T08:37:28.894Z,53.50
2018-06-28T08:39:56.665Z,53.19
2018-06-28T08:42:24.957Z,53.29
2018-06-28T08:44:53.860Z,52.98
2018-06-28T08:47:22.191Z,53.28
2018-06-28T08:49:50.506Z,53.23
2018-06-28T08:52:18.827Z,53.30
2018-06-28T08:54:47.156Z,53.54
2018-06-28T08:57:15.532Z,53.50
2018-06-28T08:59:43.846Z,53.71
2018-06-28T09:02:12.180Z,53.62
2018-06-28T09:04:40.539Z,53.59
2018-06-28T09:07:08.839Z,54.06
2018-06-28T09:09:36.588Z,53.76
2018-06-28T09:12:05.489Z,53.59
2018-06-28T09:14:33.227Z,54.17
2018-06-28T09:17:02.128Z,53.35
2018-06-28T09:19:30.440Z,53.53
2018-06-28T09:21:58.448Z,53.39
2018-06-28T09:24:26.616Z,53.27
2018-06-28T09:26:55.922Z,53.61
2018-06-28T09:29:24.210Z,53.63
2018-06-28T09:31:52.525Z,53.47
2018-06-28T09:34:20.272Z,53.40
2018-06-28T09:36:48.725Z,53.51
2018-06-28T09:39:16.928Z,53.57
2018-06-28T09:41:45.829Z,53.79
2018-06-28T09:44:13.572Z,53.32
2018-06-28T09:46:42.681Z,53.08
2018-06-28T09:49:11.591Z,52.61
2018-06-28T09:51:39.914Z,52.58
2018-06-28T09:54:07.657Z,52.27
2018-06-28T09:56:35.981Z,51.71
2018-06-28T09:59:04.920Z,51.32
2018-06-28T10:01:32.660Z,50.65
2018-06-28T10:04:01.557Z,50.45
2018-06-28T10:06:29.880Z,50.00
2018-06-28T10:08:58.211Z,50.54
2018-06-28T10:11:25.979Z,50.77
2018-06-28T10:13:54.285Z,50.50
2018-06-28T10:16:23.197Z,50.33
2018-06-28T10:18:50.921Z,50.48
2018-06-28T10:21:19.827Z,50.45
2018-06-28T10:23:48.140Z,50.61
2018-06-28T10:26:16.477Z,50.23
2018-06-28T10:28:44.792Z,49.69
2018-06-28T10:31:13.102Z,49.09
2018-06-28T10:33:42.592Z,48.96
2018-06-28T10:36:09.754Z,47.61
2018-06-28T10:38:38.084Z,47.68
2018-06-28T10:41:06.092Z,47.69
2018-06-28T10:43:35.585Z,47.94
2018-06-28T10:46:03.317Z,48.02
2018-06-28T10:48:31.644Z,47.75
2018-06-28T10:51:00.537Z,47.69
2018-06-28T10:53:28.877Z,47.63
2018-06-28T10:55:56.611Z,47.58
2018-06-28T10:58:25.122Z,47.37
2018-06-28T11:00:53.285Z,47.57
2018-06-28T11:03:22.178Z,47.82
2018-06-28T11:05:49.920Z,47.71
2018-06-28T11:08:18.851Z,46.64
2018-06-28T11:10:47.135Z,46.53
2018-06-28T11:13:15.460Z,46.21
2018-06-28T11:15:43.816Z,45.96
2018-06-28T11:18:12.106Z,46.24
2018-06-28T11:20:40.412Z,45.96
2018-06-28T11:23:08.724Z,45.57
2018-06-28T11:25:36.467Z,45.12
2018-06-28T11:28:04.789Z,45.95
2018-06-28T11:30:33.108Z,44.94
2018-06-28T11:33:01.432Z,44.27
2018-06-28T11:35:29.753Z,44.27
2018-06-28T11:37:58.654Z,43.92
2018-06-28T11:40:26.405Z,44.38
2018-06-28T11:42:54.726Z,44.05
2018-06-28T11:45:23.636Z,44.08
2018-06-28T11:47:52.543Z,43.45
2018-06-28T11:50:20.595Z,43.34
2018-06-28T11:52:48.913Z,42.42
2018-06-28T11:55:17.233Z,42.52
2018-06-28T11:57:44.974Z,42.44
2018-06-28T12:00:13.287Z,42.11
2018-06-28T12:02:41.760Z,42.42
2018-06-28T12:05:10.148Z,42.06
2018-06-28T12:07:38.410Z,41.62
2018-06-28T12:10:07.311Z,41.44
2018-06-28T12:12:35.873Z,40.26
2018-06-28T12:15:03.972Z,40.69
2018-06-28T12:17:32.532Z,40.25
2018-06-28T12:20:00.622Z,40.52
2018-06-28T12:24:57.267Z,39.64
2018-06-28T12:27:25.590Z,39.97
2018-06-28T12:29:53.905Z,39.24
2018-06-28T12:32:22.556Z,39.11
2018-06-28T12:34:50.864Z,39.50
2018-06-28T12:37:18.975Z,39.94
2018-06-28T12:39:47.863Z,39.06
2018-06-28T12:42:15.610Z,39.06
2018-06-28T12:44:47.157Z,38.94
2018-06-28T12:47:27.425Z,38.88
2018-06-28T12:49:55.939Z,39.84
2018-06-28T12:52:36.279Z,38.77
2018-06-28T12:55:04.026Z,38.55
2018-06-28T12:57:34.255Z,39.10
2018-06-28T13:00:02.596Z,38.14
2018-06-28T13:02:32.019Z,37.38
2018-06-28T13:05:00.345Z,36.56
2018-06-28T13:07:30.057Z,36.94
2018-06-28T13:10:05.355Z,36.35
2018-06-28T13:12:30.705Z,36.03
2018-06-28T13:14:58.446Z,35.97
2018-06-28T13:17:26.770Z,35.60
2018-06-28T13:19:55.710Z,35.00
2018-06-28T13:22:32.089Z,34.61
2018-06-28T13:25:00.430Z,34.51
2018-06-28T13:27:29.028Z,34.37
2018-06-28T13:29:57.926Z,33.99
2018-06-28T13:32:26.246Z,33.92
2018-06-28T13:34:54.606Z,33.36
2018-06-28T13:37:23.621Z,32.99
2018-06-28T13:39:51.942Z,32.97
2018-06-28T13:42:20.452Z,33.00
2018-06-28T13:44:48.595Z,33.25
2018-06-28T13:47:19.117Z,33.29
2018-06-28T13:49:47.442Z,33.10
2018-06-28T13:52:15.816Z,32.92
2018-06-28T13:54:44.088Z,32.65
2018-06-28T13:57:11.980Z,32.40
2018-06-28T13:59:40.737Z,32.90
2018-06-28T14:02:08.473Z,32.91
2018-06-28T14:04:37.370Z,32.62
2018-06-28T14:07:05.623Z,32.26
2018-06-28T14:09:34.471Z,31.95
2018-06-28T14:12:02.212Z,31.88
2018-06-28T14:14:31.110Z,31.26
2018-06-28T14:16:58.858Z,31.15
2018-06-28T14:19:27.766Z,30.70
2018-06-28T14:21:56.089Z,30.60
2018-06-28T14:24:24.396Z,30.05
2018-06-28T14:26:52.148Z,29.76
2018-06-28T14:29:21.042Z,29.33
2018-06-28T14:31:48.784Z,29.12
2018-06-28T14:34:17.697Z,29.04
2018-06-28T14:36:46.024Z,28.63
2018-06-28T14:39:14.569Z,28.08
2018-06-28T14:41:42.667Z,28.34
2018-06-28T14:44:10.403Z,28.13
2018-06-28T14:46:39.543Z,28.15
2018-06-28T14:49:07.069Z,27.92
2018-06-28T14:51:36.034Z,28.26
2018-06-28T14:54:04.350Z,27.72
2018-06-28T14:56:32.102Z,27.82
2018-06-28T14:59:00.433Z,27.62
2018-06-28T15:01:29.334Z,26.93
2018-06-28T15:03:57.654Z,26.80
2018-06-28T15:06:25.980Z,26.60
2018-06-28T15:08:55.208Z,26.72
2018-06-28T15:11:23.534Z,26.53
2018-06-28T15:13:51.281Z,26.61
2018-06-28T15:16:19.599Z,26.13
2018-06-28T15:18:47.925Z,26.09
2018-06-28T15:21:16.842Z,26.21
2018-06-28T15:23:45.167Z,25.70
2018-06-28T15:26:12.898Z,25.27
2018-06-28T15:28:41.219Z,25.43
2018-06-28T15:31:09.550Z,25.67
2018-06-28T15:33:37.869Z,25.30
2018-06-28T15:36:06.191Z,25.35
2018-06-28T15:38:34.542Z,25.16
2018-06-28T15:41:03.410Z,25.09
2018-06-28T15:43:31.730Z,25.26
2018-06-28T15:46:00.051Z,25.55
2018-06-28T15:48:28.385Z,25.34
2018-06-28T15:50:56.698Z,25.59
2018-06-28T15:53:25.026Z,25.73
2018-06-28T15:55:53.422Z,25.77
2018-06-28T15:58:21.226Z,25.61
2018-06-28T16:00:50.144Z,25.78
2018-06-28T16:03:18.686Z,25.83
2018-06-28T16:05:47.108Z,26.19
2018-06-28T16:08:15.435Z,26.21
2018-06-28T16:10:43.836Z,26.50
2018-06-28T16:13:11.615Z,25.99
2018-06-28T16:15:40.739Z,25.89
2018-06-28T16:18:08.457Z,26.29
2018-06-28T16:20:37.389Z,26.14
2018-06-28T16:23:05.720Z,26.41
2018-06-28T16:25:33.505Z,26.19
2018-06-28T16:28:02.503Z,26.03
2018-06-28T16:30:30.823Z,25.97
2018-06-28T16:32:59.503Z,26.45
2018-06-28T16:35:27.880Z,26.45
2018-06-28T16:37:57.502Z,26.24
2018-06-28T16:40:26.084Z,26.53
2018-06-28T16:42:54.475Z,26.51
2018-06-28T16:45:22.806Z,26.73
2018-06-28T16:47:51.115Z,27.12
2018-06-28T16:50:21.044Z,26.59
2018-06-28T16:52:49.488Z,26.95
2018-06-28T16:55:18.486Z,26.92
2018-06-28T16:57:47.125Z,26.68
2018-06-28T17:00:17.705Z,26.81
2018-06-28T17:02:45.450Z,26.97
2018-06-28T17:05:14.469Z,27.04
2018-06-28T17:07:43.004Z,27.44
2018-06-28T17:10:18.698Z,27.80
2018-06-28T17:12:49.568Z,28.09
2018-06-28T17:15:20.672Z,28.87
2018-06-28T17:17:49.000Z,29.68
2018-06-28T17:20:17.599Z,30.05
2018-06-28T17:22:45.725Z,30.87
2018-06-28T17:25:14.071Z,31.27
2018-06-28T17:27:41.875Z,32.04
2018-06-28T17:30:10.777Z,32.68
2018-06-28T17:32:39.824Z,33.58
2018-06-28T17:35:07.477Z,33.77
2018-06-28T17:37:35.803Z,34.15
2018-06-28T17:40:04.125Z,34.49
2018-06-28T17:42:31.908Z,34.90
2018-06-28T17:45:00.766Z,35.43
2018-06-28T17:47:29.373Z,35.79
2018-06-28T17:50:00.934Z,36.13
2018-06-28T17:52:29.272Z,36.58
2018-06-28T17:54:57.610Z,37.12
2018-06-28T17:57:25.937Z,37.26
2018-06-28T17:59:53.907Z,37.46
2018-06-28T18:02:27.201Z,37.87
2018-06-28T18:04:51.161Z,37.84
2018-06-28T18:07:19.448Z,38.18
2018-06-28T18:09:47.763Z,38.40
2018-06-28T18:12:16.086Z,38.43
2018-06-28T18:14:44.457Z,38.41
2018-06-28T18:17:12.757Z,38.52
2018-06-28T18:19:40.504Z,38.67
2018-06-28T18:22:08.815Z,38.92
2018-06-28T18:24:37.722Z,39.22
2018-06-28T18:27:06.035Z,39.58
2018-06-28T18:29:34.354Z,39.90
2018-06-28T18:32:02.941Z,40.13
2018-06-28T18:34:32.566Z,40.08
2018-06-28T18:37:00.885Z,40.14
2018-06-28T18:39:29.785Z,40.62
2018-06-28T18:41:58.098Z,40.81
2018-06-28T18:44:26.425Z,41.02
2018-06-28T18:46:54.737Z,41.09
2018-06-28T18:49:23.079Z,40.95
2018-06-28T18:51:50.814Z,41.06
2018-06-28T18:54:19.711Z,41.10
2018-06-28T18:56:48.171Z,41.37
2018-06-28T18:59:16.609Z,41.47
2018-06-28T19:01:45.000Z,41.67
2018-06-28T19:04:13.264Z,41.92
2018-06-28T19:06:41.013Z,42.21
2018-06-28T19:09:09.920Z,42.61
2018-06-28T19:11:38.510Z,43.09
2018-06-28T19:14:06.288Z,43.38
2018-06-28T19:16:40.841Z,43.50
2018-06-28T19:19:09.214Z,43.86
2018-06-28T19:21:37.525Z,43.83
2018-06-28T19:24:05.832Z,43.90
2018-06-28T19:26:33.579Z,43.95
2018-06-28T19:29:02.594Z,43.74
2018-06-28T19:31:31.801Z,43.78
2018-06-28T19:34:00.111Z,43.65
2018-06-28T19:36:46.274Z,43.81
2018-06-28T19:39:14.625Z,43.91
2018-06-28T19:41:47.357Z,43.85
2018-06-28T19:44:15.712Z,43.79
2018-06-28T19:46:44.285Z,44.32
2018-06-28T19:49:13.194Z,45.05
2018-06-28T19:51:40.940Z,46.28
2018-06-28T19:54:15.285Z,47.19
2018-06-28T19:56:43.195Z,47.91
2018-06-28T19:59:11.541Z,48.55
2018-06-28T20:01:40.445Z,49.35
2018-06-28T20:04:09.673Z,50.07
2018-06-28T20:06:38.005Z,50.88
2018-06-28T20:09:06.319Z,51.52
2018-06-28T20:11:34.647Z,51.97
2018-06-28T20:14:11.901Z,52.25
2018-06-28T20:16:42.722Z,52.55
2018-06-28T20:19:13.477Z,52.69
2018-06-28T20:21:41.723Z,52.88
2018-06-28T20:24:10.082Z,53.40
2018-06-28T20:26:38.408Z,53.61
2018-06-28T20:29:06.728Z,53.27
2018-06-28T20:31:40.761Z,52.68
2018-06-28T20:34:09.100Z,52.25
2018-06-28T20:36:37.427Z,52.47
2018-06-28T20:39:05.191Z,53.34
2018-06-28T20:41:33.513Z,54.31
2018-06-28T20:44:08.878Z,55.07
2018-06-28T20:46:43.106Z,55.37
2018-06-28T20:49:10.846Z,55.42
2018-06-28T20:51:39.969Z,55.76
2018-06-28T20:54:07.504Z,56.09
2018-06-28T20:56:36.409Z,56.72
2018-06-28T20:59:04.221Z,57.40
2018-06-28T21:01:33.062Z,57.84
2018-06-28T21:04:05.941Z,58.13
2018-06-28T21:06:33.588Z,58.16
2018-06-28T21:09:01.948Z,58.26
2018-06-28T21:11:29.688Z,58.46
2018-06-28T21:13:58.085Z,58.63
2018-06-28T21:16:28.933Z,58.87
2018-06-28T21:19:06.061Z,59.20
2018-06-28T21:21:34.675Z,59.20
2018-06-28T21:24:07.155Z,58.57
2018-06-28T21:26:35.668Z,58.05
2018-06-28T21:29:04.009Z,57.60
2018-06-28T21:34:00.947Z,57.45
2018-06-28T21:36:29.145Z,57.66
2018-06-28T21:38:56.899Z,58.17
2018-06-28T21:41:25.194Z,58.27
2018-06-28T21:43:54.445Z,58.73
2018-06-28T21:46:22.785Z,59.32
2018-06-28T21:48:51.123Z,59.95
2018-06-28T21:51:19.205Z,60.50
2018-06-28T21:53:48.151Z,60.60
2018-06-28T21:56:16.835Z,60.91
2018-06-28T21:58:45.174Z,61.19
2018-06-28T22:01:13.491Z,61.29
2018-06-28T22:03:42.875Z,61.45
2018-06-28T22:06:10.865Z,61.50
2018-06-28T22:08:44.190Z,61.91
2018-06-28T22:11:11.238Z,62.34
2018-06-28T22:13:40.247Z,62.35
2018-06-28T22:16:07.920Z,62.71
2018-06-28T22:18:36.826Z,62.29
2018-06-28T22:21:04.608Z,61.50
2018-06-28T22:23:33.504Z,61.30
2018-06-28T22:26:03.757Z,61.54
2018-06-28T22:28:31.786Z,61.92
2018-06-28T22:31:01.329Z,62.49
2018-06-28T22:33:29.644Z,63.06
2018-06-28T22:35:57.382Z,63.11
2018-06-28T22:38:26.281Z,63.17
2018-06-28T22:40:54.602Z,63.55
2018-06-28T22:43:23.027Z,63.49
2018-06-28T22:45:50.719Z,63.14
2018-06-28T22:48:21.672Z,63.47
2018-06-28T22:50:50.112Z,64.37
2018-06-28T22:53:18.420Z,64.65
2018-06-28T22:55:46.736Z,65.16
2018-06-28T22:58:14.761Z,65.58
2018-06-28T23:00:43.668Z,65.64
2018-06-28T23:03:11.976Z,65.86
2018-06-28T23:05:40.309Z,66.27
2018-06-28T23:08:08.628Z,66.56
2018-06-28T23:10:36.367Z,66.46
2018-06-28T23:13:05.300Z,66.73
2018-06-28T23:15:33.618Z,67.00
2018-06-28T23:18:01.939Z,67.11
2018-06-28T23:20:30.260Z,67.38
2018-06-28T23:22:58.028Z,67.56
2018-06-28T23:25:26.911Z,67.64
2018-06-28T23:27:54.656Z,67.83
2018-06-28T23:30:23.560Z,67.68
2018-06-28T23:32:51.312Z,66.75
2018-06-28T23:35:19.631Z,66.29
2018-06-28T23:37:47.950Z,65.67
2018-06-28T23:40:16.853Z,65.12
2018-06-28T23:42:45.194Z,65.29
2018-06-28T23:45:13.536Z,65.13
2018-06-28T23:47:41.908Z,65.85
2018-06-28T23:50:10.181Z,66.64
2018-06-28T23:52:37.932Z,67.15
2018-06-28T23:55:06.835Z,67.06
2018-06-28T23:57:35.155Z,66.41
